Latest Coastal Weather Observations for Kingscote

IDS60701

Issued at 12:01 am CST Saturday 19 August 2017 (issued every 10 minutes, with the page automatically refreshed every 10 minutes)

About coastal observations | Map of coastal stations | Coastal observations for SA | Marine services | Other Formats
Station Details ID: 022841 Name: KINGSCOTE AERO Lat: -35.71 Lon: 137.52 Height: 6.23 m
Data from the previous 72 hours. | See also: Recent months at Kingscote
Date/Time
CST
Temp
°C
Wind Pressure Rain since
9am
mm
Weather Cloud Vis
km
Sea
Height
m
Swell
Dir  Spd
kts
Gust
kts
hPa Trend Height
m
Period
s
Dir
19/12:00am 5.2 WNW 1 3 1027.3 - 0.2 - - 10 - - - -
 
Date/Time
CST
Temp
°C
Wind Pressure Rain since
9am
mm
Weather Cloud Vis
km
Sea
Height
m
Swell
Dir  Spd
kts
Gust
kts
hPa Trend Height
m
Period
s
Dir
18/11:30pm 5.1 W 5 6 1027.2 - 0.2 - Partly cloudy 10 - - - -
18/11:00pm 5.0 W 5 6 1027.1 - 0.2 - - 10 - - - -
18/10:30pm 5.4 CALM 0 5 1027.1 - 0.2 - - 10 - - - -
18/10:00pm 6.4 WNW 4 5 1027.2 - 0.2 - - 10 - - - -
18/09:30pm 7.0 W 5 7 1027.0 - 0.2 - Partly cloudy 10 - - - -
18/09:00pm 8.0 W 7 10 1026.7 - 0.2 - Partly cloudy 10 - - - -
18/08:30pm 7.5 WNW 7 8 1026.5 - 0.2 - - 10 - - - -
18/08:00pm 8.2 WNW 7 8 1026.3 - 0.2 - Partly cloudy 10 - - - -
18/07:30pm 8.8 W 7 9 1026.1 - 0.2 - Partly cloudy 10 - - - -
18/07:00pm 8.6 W 7 8 1025.8 - 0.2 - - 10 - - - -
18/06:30pm 9.6 WSW 8 10 1025.5 - 0.2 - Partly cloudy 10 - - - -
18/06:00pm 10.8 WSW 10 13 1025.3 - 0.2 - Cloudy 10 - - - -
18/05:30pm 11.6 SW 13 22 1024.8 - 0.2 - Partly cloudy 10 - - - -
18/05:00pm 11.5 SW 12 16 1024.3 - 0.2 - Partly cloudy 10 - - - -
18/04:30pm 12.8 SW 15 20 1023.9 - 0.2 - Partly cloudy 10 - - - -
18/04:00pm 12.8 SW 16 23 1023.7 - 0.2 - Partly cloudy 10 - - - -
18/03:30pm 13.0 SW 17 27 1023.7 - 0.2 - Partly cloudy 10 - - - -
18/03:00pm 13.6 SW 16 23 1023.2 - 0.2 - Cloudy 10 - - - -
18/02:30pm 14.6 SW 16 22 1022.9 - 0.2 - Partly cloudy 10 - - - -
18/02:00pm 14.2 SW 17 22 1022.9 - 0.2 - Partly cloudy 10 - - - -
18/01:30pm 14.5 WSW 16 24 1022.7 - 0.2 - Partly cloudy 10 - - - -
18/01:00pm 13.6 SW 16 22 1022.9 - 0.2 - Partly cloudy 10 - - - -
18/12:30pm 14.1 WSW 18 28 1022.8 - 0.2 - Partly cloudy 10 - - - -
18/12:00pm 10.9 WSW 18 29 1023.1 - 0.2 - Cloudy 10 - - - -
18/11:30am 10.4 WSW 17 29 1023.2 - 0.2 - Partly cloudy 10 - - - -
18/11:19am 12.4 SW 20 35 1022.9 - 0.2 - Partly cloudy 10 - - - -
18/11:00am 13.4 SW 16 21 1022.7 - 0.2 - - 10 - - - -
18/10:30am 11.6 WSW 14 19 1022.6 - 0.2 - Partly cloudy 10 - - - -
18/10:01am 11.2 SW 17 32 1022.3 - 0.0 - Partly cloudy 10 - - - -
18/10:00am 11.8 SW 17 25 1022.3 - 0.0 - Partly cloudy 10 - - - -
18/09:30am 11.7 W 12 17 1021.6 - 0.0 - - 10 - - - -
18/09:00am 10.3 WSW 14 19 1021.4 - 3.6 - Partly cloudy 10 - - - -
18/08:46am 8.8 SW 17 27 1021.3 - 3.6 - Partly cloudy 10 - - - -
18/08:38am 10.4 WSW 14 24 1021.2 - 3.6 - Partly cloudy 10 - - - -
18/08:30am 10.3 WSW 9 13 1020.8 - 3.6 - - 10 - - - -
18/08:00am 8.5 WSW 12 17 1020.2 - 3.6 - Partly cloudy 10 - - - -
18/07:30am 7.7 W 9 12 1019.6 - 3.6 - - 10 - - - -
18/07:00am 7.3 W 9 13 1019.1 - 3.6 - Partly cloudy 10 - - - -
18/06:30am 7.7 W 11 14 1018.7 - 3.6 - Partly cloudy 10 - - - -
18/06:00am 7.1 WNW 8 10 1018.2 - 3.6 - - 10 - - - -
18/05:30am 8.0 WSW 11 17 1017.6 - 3.6 - Partly cloudy 10 - - - -
18/05:00am 7.5 WSW 11 14 1017.2 - 3.6 - - 10 - - - -
18/04:30am 7.4 W 10 15 1016.9 - 3.6 - Partly cloudy 10 - - - -
18/04:00am 7.5 W 10 15 1016.4 - 3.6 - Partly cloudy 10 - - - -
18/03:30am 8.1 W 15 25 1016.1 - 3.6 - Partly cloudy 10 - - - -
18/03:00am 7.9 W 12 14 1015.8 - 3.6 - Mostly clear 10 - - - -
18/02:30am 7.8 W 11 16 1015.7 - 3.6 - - 10 - - - -
18/02:00am 8.5 W 15 21 1015.2 - 3.6 - Partly cloudy 10 - - - -
18/01:30am 8.3 W 13 17 1015.2 - 3.6 - - 10 - - - -
18/01:00am 8.2 W 12 16 1014.8 - 3.6 - - 10 - - - -
18/12:30am 8.1 W 11 15 1014.3 - 3.6 - - 10 - - - -
18/12:00am 8.0 W 11 14 1014.0 - 3.6 Recent precip. - 10 - - - -
 
Date/Time
CST
Temp
°C
Wind Pressure Rain since
9am
mm
Weather Cloud Vis
km
Sea
Height
m
Swell
Dir  Spd
kts
Gust
kts
hPa Trend Height
m
Period
s
Dir
17/11:30pm 8.2 W 11 15 1013.8 - 3.6 - Partly cloudy 10 - - - -
17/11:00pm 8.3 WSW 9 11 1013.9 - 3.4 - Partly cloudy 10 - - - -
17/10:30pm 8.8 W 15 22 1012.8 - 3.4 - Partly cloudy 10 - - - -
17/10:00pm 9.0 W 15 20 1012.6 - 3.4 - Partly cloudy 10 - - - -
17/09:49pm 9.0 W 16 26 1012.2 - 3.4 - Partly cloudy 10 - - - -
17/09:30pm 9.1 W 14 20 1012.6 - 3.4 - Partly cloudy 10 - - - -
17/09:00pm 8.7 W 15 21 1012.1 - 3.4 - Partly cloudy 10 - - - -
17/08:33pm 9.3 W 16 36 1011.7 - 3.4 - Partly cloudy 10 - - - -
17/08:32pm 9.4 W 15 25 1011.6 - 3.4 - Partly cloudy 10 - - - -
17/08:30pm 9.2 W 14 25 1011.5 - 3.4 - Partly cloudy 10 - - - -
17/08:00pm 8.1 W 10 13 1011.0 - 3.4 - Partly cloudy 10 - - - -
17/07:30pm 8.2 W 11 17 1010.7 - 3.4 - Partly cloudy 10 - - - -
17/07:00pm 9.1 WSW 12 18 1010.7 - 3.2 - Partly cloudy 10 - - - -
17/06:30pm 8.6 W 13 17 1009.7 - 3.2 - - 10 - - - -
17/06:00pm 8.2 W 13 18 1009.3 - 3.2 Recent precip. Mostly clear 10 - - - -
17/05:52pm 8.3 W 16 26 1009.2 - 3.2 - Partly cloudy 10 - - - -
17/05:30pm 9.1 W 13 23 1009.3 - 2.8 - Partly cloudy 8 - - - -
17/05:00pm 8.9 WSW 17 25 1008.6 - 2.2 - Partly cloudy 8 - - - -
17/04:30pm 11.5 W 24 35 1007.7 - 1.6 - Partly cloudy 10 - - - -
17/04:29pm 12.0 W 24 34 1007.8 - 1.6 - Partly cloudy 10 - - - -
17/04:21pm 13.1 W 23 34 1007.2 - 1.6 - Partly cloudy 10 - - - -
17/04:00pm 13.6 W 23 32 1007.0 - 1.6 - Partly cloudy 10 - - - -
17/03:30pm 13.6 W 24 37 1006.7 - 1.6 - Partly cloudy 10 - - - -
17/03:00pm 13.3 WNW 22 33 1006.6 - 1.6 - Mostly clear 10 - - - -
17/02:31pm 13.1 W 20 30 1006.2 - 1.6 - Partly cloudy 10 - - - -
17/02:30pm 13.0 W 19 28 1006.3 - 1.6 - Partly cloudy 10 - - - -
17/02:00pm 12.5 W 21 29 1006.7 - 1.6 - Partly cloudy 10 - - - -
17/01:35pm 11.1 W 18 28 1006.7 - 1.6 - Partly cloudy 10 - - - -
17/01:30pm 10.6 W 19 32 1006.8 - 1.6 - Partly cloudy 10 - - - -
17/01:24pm 10.9 W 24 37 1006.7 - 1.6 - Partly cloudy 5 - - - -
17/01:04pm 12.6 W 17 28 1006.1 - 1.2 - Partly cloudy 10 - - - -
17/01:00pm 12.5 W 17 23 1006.3 - 1.2 - Partly cloudy 10 - - - -
17/12:35pm 9.1 W 27 37 1007.3 - 1.2 - Partly cloudy 9 - - - -
17/12:30pm 9.5 W 28 37 1007.3 - 1.2 - Partly cloudy 9 - - - -
17/12:21pm 10.8 WNW 26 40 1007.1 - 1.0 - Partly cloudy 10 - - - -
17/12:19pm 11.2 WNW 25 40 1006.9 - 0.8 - Partly cloudy 10 - - - -
17/12:01pm 13.7 WNW 19 33 1006.0 - 0.8 - - 10 - - - -
17/12:00pm 13.8 WNW 17 28 1006.0 - 0.8 - Clear 10 - - - -
17/11:59am 13.4 WNW 17 28 1006.0 - 0.8 - - 10 - - - -
17/11:30am 12.6 W 18 25 1006.7 - 0.8 - - 10 - - - -
17/11:00am 11.7 WSW 20 30 1006.8 - 0.8 - Partly cloudy 10 - - - -
17/10:40am 12.1 WSW 18 33 1006.4 - 0.8 - Partly cloudy 10 - - - -
17/10:35am 13.2 W 17 33 1006.5 - 0.8 - Partly cloudy 10 - - - -
17/10:34am 12.9 W 16 33 1006.4 - 0.8 - Partly cloudy 10 - - - -
17/10:33am 13.8 W 15 33 1006.3 - 0.8 - Partly cloudy 10 - - - -
17/10:30am 13.4 W 11 23 1006.3 - 0.8 - Partly cloudy 10 - - - -
17/10:00am 10.4 WSW 13 23 1006.6 - 0.8 - Partly cloudy 10 - - - -
17/09:30am 12.0 WNW 14 23 1006.2 - 0.4 - Partly cloudy 10 - - - -
17/09:00am 12.8 WNW 15 21 1006.0 - 5.2 - Partly cloudy 10 - - - -
17/08:30am 13.0 WNW 22 33 1005.7 - 5.2 - Partly cloudy 10 - - - -
17/08:23am 13.4 WNW 18 29 1005.6 - 5.2 - Partly cloudy 10 - - - -
17/08:00am 12.9 WNW 15 24 1005.4 - 5.2 - Partly cloudy 10 - - - -
17/07:30am 12.0 WNW 14 19 1005.1 - 5.2 - - 10 - - - -
17/07:00am 9.9 WNW 8 10 1005.1 - 5.2 - - 10 - - - -
17/06:30am 10.8 WNW 11 16 1004.9 - 5.2 - Partly cloudy 10 - - - -
17/06:00am 10.7 W 10 13 1004.7 - 5.2 - - 10 - - - -
17/05:30am 10.0 W 8 12 1004.6 - 5.2 - - 10 - - - -
17/05:00am 10.3 WNW 10 13 1004.4 - 5.2 - - 10 - - - -
17/04:30am 9.8 WNW 9 11 1004.4 - 5.2 - - 10 - - - -
17/04:00am 10.3 W 13 21 1004.2 - 5.2 - Partly cloudy 10 - - - -
17/03:30am 10.1 WNW 11 18 1003.5 - 5.2 - Partly cloudy 10 - - - -
17/03:20am 10.1 W 14 19 1004.1 - 5.2 - Partly cloudy 10 - - - -
17/03:08am 10.6 W 16 29 1004.6 - 4.8 - Partly cloudy 5 - - - -
17/03:01am 11.7 WNW 15 26 1004.7 - 4.4 - Partly cloudy 10 - - - -
17/03:00am 11.8 WNW 14 21 1004.6 - 4.0 - Cloudy 10 - - - -
17/02:40am 12.3 WNW 15 26 1004.0 - 4.0 - Partly cloudy 10 - - - -
17/02:30am 12.3 WNW 11 15 1004.0 - 4.0 - Partly cloudy 10 - - - -
17/02:00am 12.0 NW 13 18 1004.0 - 4.0 - - 10 - - - -
17/01:30am 11.0 NW 10 15 1004.3 - 4.0 - Partly cloudy 10 - - - -
17/01:00am 11.6 WNW 11 15 1004.6 - 3.6 - Partly cloudy 10 - - - -
17/12:30am 10.9 WNW 10 18 1004.7 - 3.6 - Partly cloudy 10 - - - -
17/12:13am 12.0 W 11 22 1004.9 - 3.6 - Partly cloudy 10 - - - -
17/12:00am 12.2 NW 9 11 1004.8 - 3.6 - Mostly cloudy 10 - - - -
 
Date/Time
CST
Temp
°C
Wind Pressure Rain since
9am
mm
Weather Cloud Vis
km
Sea
Height
m
Swell
Dir  Spd
kts
Gust
kts
hPa Trend Height
m
Period
s
Dir
16/11:30pm 12.2 WNW 11 15 1005.1 - 3.6 - Partly cloudy 10 - - - -
16/11:00pm 12.2 WNW 11 17 1005.3 - 3.6 - - 10 - - - -
16/10:30pm 12.3 WNW 12 15 1005.6 - 3.6 - - 10 - - - -
16/10:00pm 12.3 WNW 12 16 1005.5 - 3.6 - - 10 - - - -
16/09:30pm 12.0 WNW 11 16 1005.8 - 3.6 - - 10 - - - -
16/09:00pm 11.4 NW 9 13 1005.7 - 3.6 - - 10 - - - -
16/08:30pm 11.8 WNW 13 17 1005.5 - 3.6 - - 10 - - - -
16/08:00pm 12.5 WNW 17 23 1005.4 - 3.6 - Partly cloudy 10 - - - -
16/07:30pm 12.0 WNW 9 14 1005.2 - 3.6 - - 10 - - - -
16/07:00pm 11.8 W 11 16 1004.8 - 3.6 - Partly cloudy 10 - - - -
16/06:30pm 12.5 W 16 22 1004.8 - 3.6 - Partly cloudy 10 - - - -
16/06:18pm 12.6 WNW 12 28 1004.6 - 3.6 - Partly cloudy 10 - - - -
16/06:00pm 12.3 NW 9 13 1004.4 - 3.4 - Cloudy 10 - - - -
16/05:30pm 13.0 WNW 15 20 1004.5 - 3.4 - Partly cloudy 9 - - - -
16/05:13pm 13.6 WNW 15 25 1004.2 - 3.4 - - 10 - - - -
16/05:00pm 13.8 WNW 15 23 1004.1 - 3.4 - Partly cloudy 10 - - - -
16/04:30pm 12.7 WNW 12 19 1004.4 - 3.4 - Partly cloudy 10 - - - -
16/04:23pm 12.4 WNW 14 22 1004.4 - 3.4 - Partly cloudy 10 - - - -
16/04:02pm 12.6 WNW 19 31 1005.0 - 2.4 - Partly cloudy 5 - - - -
16/04:01pm 12.9 WNW 18 28 1004.7 - 1.4 - Partly cloudy 7 - - - -
16/04:00pm 13.0 NW 17 26 1004.6 - 1.2 - Partly cloudy 8 - - - -
16/03:46pm 13.2 NW 16 23 1004.1 - 0.6 - Partly cloudy 10 - - - -
16/03:33pm 13.2 NW 20 41 1004.2 - 0.6 - Partly cloudy 5 - - - -
16/03:30pm 12.9 NW 21 41 1004.2 - 0.6 - Partly cloudy 6 - - - -
16/03:27pm 13.6 NW 20 41 1004.2 - 0.4 - Partly cloudy 10 - - - -
16/03:08pm 15.7 WNW 18 30 1004.0 - 0.0 - Partly cloudy 10 - - - -
16/03:00pm 15.4 WNW 18 26 1004.1 - 0.0 - Mostly cloudy 10 - - - -
16/02:36pm 16.6 WNW 21 31 1003.9 - 0.0 - Partly cloudy 10 - - - -
16/02:30pm 16.8 WNW 21 27 1003.9 - 0.0 - Partly cloudy 10 - - - -
16/02:00pm 16.3 NW 22 33 1003.7 - 0.0 - Partly cloudy 10 - - - -
16/01:30pm 15.9 WNW 26 38 1004.0 - 0.0 - Partly cloudy 10 - - - -
16/01:00pm 16.6 WNW 24 35 1004.3 - 0.0 - Partly cloudy 10 - - - -
16/12:39pm 16.1 WNW 23 35 1004.4 - 0.0 - Partly cloudy 10 - - - -
16/12:30pm 16.2 WNW 23 32 1004.5 - 0.0 - Partly cloudy 10 - - - -
16/12:05pm 16.3 WNW 21 31 1004.6 - 0.0 - Partly cloudy 10 - - - -
16/12:00pm 16.2 WNW 19 27 1004.6 - 0.0 - Cloudy 10 - - - -
16/11:30am 15.8 WNW 25 36 1005.0 - 0.0 - Partly cloudy 10 - - - -
16/11:12am 15.2 WNW 19 30 1005.2 - 0.0 - Partly cloudy 10 - - - -
16/11:00am 15.8 WNW 22 30 1005.2 - 0.0 - Partly cloudy 10 - - - -
16/10:30am 15.6 W 20 31 1005.2 - 0.0 - Partly cloudy 10 - - - -
16/10:01am 15.1 WNW 18 28 1004.9 - 0.0 - Partly cloudy 10 - - - -
16/10:00am 15.2 WNW 18 27 1005.0 - 0.0 - Partly cloudy 10 - - - -
16/09:30am 14.2 WNW 16 25 1004.8 - 0.0 - Partly cloudy 10 - - - -
16/09:00am 13.9 WNW 11 15 1004.6 - 1.6 - - 10 - - - -
16/08:30am 12.8 WNW 10 13 1004.4 - 1.6 - Partly cloudy 10 - - - -
16/08:00am 12.3 WNW 11 16 1004.3 - 1.6 - Partly cloudy 10 - - - -
16/07:30am 11.4 WNW 8 10 1003.9 - 1.6 - - 10 - - - -
16/07:00am 11.3 W 10 14 1003.5 - 1.6 - - 10 - - - -
16/06:30am 11.1 W 12 17 1003.2 - 1.6 - Partly cloudy 10 - - - -
16/06:00am 11.2 WNW 13 19 1002.7 - 1.6 - Mostly clear 10 - - - -
16/05:30am 11.4 WNW 12 18 1002.5 - 1.6 - Partly cloudy 10 - - - -
16/05:00am 11.8 W 12 16 1002.3 - 1.6 - Partly cloudy 10 - - - -
16/04:30am 11.7 W 11 17 1001.8 - 1.6 - Partly cloudy 10 - - - -
16/04:00am 11.7 WNW 11 16 1001.4 - 1.6 - Partly cloudy 10 - - - -
16/03:30am 11.7 W 13 19 1001.2 - 1.6 - Partly cloudy 10 - - - -
16/03:00am 11.4 W 10 15 1001.1 - 1.6 - Cloudy 10 - - - -
16/02:30am 11.2 W 11 17 1001.0 - 1.6 - Partly cloudy 10 - - - -
16/02:00am 11.0 W 10 14 1000.8 - 1.6 - Partly cloudy 10 - - - -
16/01:30am 10.9 W 13 20 1000.7 - 1.6 - Partly cloudy 10 - - - -
16/01:00am 11.2 W 17 24 1000.5 - 1.6 - Partly cloudy 10 - - - -
16/12:43am 11.5 W 17 28 1000.5 - 1.6 - Partly cloudy 10 - - - -
16/12:30am 11.2 W 17 24 1000.0 - 1.2 - Partly cloudy 10 - - - -
16/12:05am 12.4 W 23 38 1000.1 - 1.2 - Partly cloudy 10 - - - -

Other Formats:

Comma delimited format used in spreadsheet applications
http://www.bom.gov.au/fwo/IDS60701/IDS60701.95807.axf

JavaScript Object Notation format (JSON) in row-major order
http://www.bom.gov.au/fwo/IDS60701/IDS60701.95807.json